Gualala, CA

1:30 AM PST on January 29, 2015 (GMT -0800)
Ocean Ridge | Change Station
CLOSE
Current Station
Personal Weather Station
Location: Gualala, CA
Elevation: 900 ft
Nearby Weather Stations

Elev 900 ft 38.80 °N, 123.53 °W | Updated 7 seconds ago

Clear
Clear
49.8 °F
Feels Like 50 °F
N
0.0
Wind Variable Wind from North
Gusts 0.7 mph

Today
High -- | Low -- °F
--% Chance of Precip.
Yesterday
High -- | Low -- °F
Precip. -- in
7:22 AM 5:32 PM
Waxing Gibbous, 72% visible
Pressure 30.18 in
Visibility 10.0 miles
Clouds Clear
Windchill 50 °F
Dew Point 37 °F
Humidity 62%
Rainfall 0.00 in
Snow Depth Not available.
UV 0 out of 12
Pollen 5.80 out of 12
Air Quality Not available.
Flu Activity Not available.
METAR KUKI 290856Z AUTO 00000KT 10SM CLR 06/04 A3019 RMK AO2 SLP220 T00610039 50001

More Conditions Fewer Conditions

Pressure 30.18 in
Visibility 10.0 miles
Clouds Clear
Windchill 50 °F
Dew Point 37 °F
Humidity 62%
Rainfall 0.00 in
Snow Depth Not available.
UV 0 out of 12
Pollen 5.80 out of 12
Air Quality Not available.
Flu Activity Not available.
METAR KUKI 290856Z AUTO 00000KT 10SM CLR 06/04 A3019 RMK AO2 SLP220 T00610039 50001

More Conditions Fewer Conditions

10-Day Weather Forecast

Almanac

Astronomy

Jan. 29, 2015 Rise Set
Actual Time
Civil Twilight
Nautical Twilight
Astronomical Twilight
Moon
Length of Visible Light
Length of Day
Tomorrow will be .
, % of the Moon is Illuminated

Today's Extremes

State Highs State Lows

Community

WunderPhotos

Upload Photos

1,791,389 photos uploaded!

WunderBlogs® & News

Nearby

Air Quality

  Air Quality AQ Index Pollutant
Not available.

Snow Depth

Station Depth Elevation

Earthquake Activity

City Distance Mag. Time & Date
Minimum magnitude displayed is 2.5.

Coastal Water Temperatures

Place Temperature

Nearby Weather Stations